首页
METAR-TAF:

METAR-TAF

机场 :

乌塔保国际机场

芭達亞-Rayong, 泰国

纬度: 12-38N, 经度: 101-21E, 海拔: 3米

当前天气观测

该预报发布于12分钟前的14:30 UTC
风速4节,风向南转西南
温度 30°C
湿度 79%
气压 1008 hPa
能见度10公里或以上
少量云层高于2000英尺

METAR: VTBU 171430Z 20004KT 9999 FEW020 30/26 Q1008 NOSIG

时间: 21:42 (14:42 UTC)

预报

该预报发布于3小时和42分钟前的11:00 UTC
预报有效从17日的 12点(UTC)到 18日的 12点(UTC)
风速6节,风向南转西南
能见度10公里或以上
少量云层高于2000英尺
成为
从 17日的 17点(UTC)到 17日的 19点(UTC)
风速4节,风向北转西北
成为
从 18日的 00点(UTC)到 18日的 02点(UTC)
风速8节,风向南转西南

TAF: VTBU 171100Z 1712/1812 20006KT 9999 FEW020 BECMG 1717/1719 34004KT BECMG 1800/1802 21008KT

超过4000个机场的气象观测和天气预报(METAR&TAF报告)。

可查询的气象台以黄色和红色小点在地图上表示。

将鼠标移到小点上方,可查看气象台名称。

然后点击查看天气观测和预报。

如需切换地图:点击带黑十字的绿色按钮放大地图;点击带横线的绿色按钮缩小地图;或者点击绿色箭头查看邻近地区的地图。


METAR-TAF: